Main page
METAR-TAF:

METAR-TAF

Airports :

Adelaide Airport

Adelaide, Australia

latitude: 34-56S, longitude: 138-31E, elevation: 6 m

Current weather observation

The report was made 27 minutes ago, at 19:30 UTC
Calm wind
Temperature 6°C
Humidity 93%
Pressure 1029 hPa
Visibility 10 km or more
Few clouds at a height of 2200 ft
Scattered clouds at a height of 5500 ft

METAR: YPAD 231930Z 00000KT 9999 FEW022 SCT055 06/05 Q1029 NOSIG

Time: 05:27 (19:57 UTC)

Forecast

The report was made 2 hours and 40 minutes ago, at 17:17 UTC
Forecast valid from 23 at 18 UTC to 24 at 24 UTC
Wind 5 kt from variable directions
Visibility 10 km or more
Scattered clouds at a height of 3000 ft

TAF: YPAD 231717Z 2318/2424 VRB05KT 9999 SCT030

Weather observations and forecasts of more than 4000 airports (METAR and TAF reports).

The available stations are represented by yellow and red dots on the map.

Hover mouse over dot to see the name of the station.

Then click to see weather observations and forecasts.

To change the map : click on the green buttons with a black cross to zoom in, on the green button with a dash to zoom out, or on the green arrows for adjacent maps.


METAR-TAF: